Time;durP1;ratioP1;P1;durP2;ratioP2;P2;SDS_P1;SDS_P2;PMS_P1;PMS_P2;Temp;Humidity;BMP_temperature;BMP_pressure;BME280_temperature;BME280_humidity;BME280_pressure;Samples;Min_cycle;Max_cycle;Signal;HPM_P1;HPM_P2
2022/11/06 00:00:54;;;;;;;60.85;32.53;;;;;;;2.39;82.99;100773.12;1946300;91;31257;-65
2022/11/06 00:03:55;;;;;;;48.02;28.40;;;;;;;2.36;82.97;100774.45;1955954;90;33208;-65
2022/11/06 00:06:56;;;;;;;50.45;27.07;;;;;;;2.33;82.95;100770.94;1976773;90;29335;-65
2022/11/06 00:09:58;;;;;;;59.73;32.73;;;;;;;2.31;82.96;100770.10;1977311;90;27718;-65
2022/11/06 00:12:59;;;;;;;50.40;26.90;;;;;;;2.28;83.04;100772.30;1977080;90;29906;-65
2022/11/06 00:16:04;;;;;;;45.90;26.17;;;;;;;2.27;83.08;100774.52;1976821;90;32429;-65
2022/11/06 00:19:06;;;;;;;36.73;20.85;;;;;;;2.25;83.15;100771.89;1977069;90;33883;-65
2022/11/06 00:22:08;;;;;;;48.25;27.48;;;;;;;2.24;83.15;100778.49;1976752;90;30317;-65
2022/11/06 00:25:10;;;;;;;49.83;26.48;;;;;;;2.22;83.09;100786.45;1977213;90;27577;-65
2022/11/06 00:28:11;;;;;;;45.35;27.42;;;;;;;2.20;83.13;100788.68;1977062;90;29509;-65
2022/11/06 00:31:19;;;;;;;45.92;26.75;;;;;;;2.19;83.21;100781.64;1976901;90;31138;-64
2022/11/06 00:34:20;;;;;;;46.48;26.95;;;;;;;2.15;83.09;100783.44;1959666;89;33057;-65
2022/11/06 00:37:21;;;;;;;50.38;28.77;;;;;;;2.12;83.15;100785.63;1946511;90;29205;-65
2022/11/06 00:40:23;;;;;;;58.80;32.75;;;;;;;2.09;83.11;100788.75;1946258;91;27684;-65
2022/11/06 00:43:24;;;;;;;48.30;28.15;;;;;;;2.09;83.17;100793.58;1946199;91;29098;-65
2022/11/06 00:46:26;;;;;;;48.80;28.40;;;;;;;2.06;83.17;100792.30;1946216;91;31429;-65
2022/11/06 00:49:28;;;;;;;44.83;27.67;;;;;;;2.03;83.17;100788.35;1946166;91;33438;-66
2022/11/06 00:52:29;;;;;;;46.10;27.42;;;;;;;2.01;83.16;100787.91;1946202;91;30466;-65
2022/11/06 00:55:30;;;;;;;56.92;29.07;;;;;;;1.99;83.18;100792.36;1946452;91;27638;-65
2022/11/06 00:58:32;;;;;;;53.98;28.70;;;;;;;1.97;83.23;100791.92;1946139;91;29131;-65
2022/11/06 01:01:37;;;;;;;52.35;25.97;;;;;;;1.96;83.29;100794.13;1946165;91;32219;-64
2022/11/06 01:04:39;;;;;;;51.55;27.05;;;;;;;1.94;83.27;100785.33;1965868;90;32393;-65
2022/11/06 01:07:41;;;;;;;44.23;26.95;;;;;;;1.93;83.29;100790.59;1977001;90;29696;-65
2022/11/06 01:10:42;;;;;;;49.77;28.62;;;;;;;1.90;83.28;100780.94;1977056;90;27760;-66
2022/11/06 01:13:49;;;;;;;50.52;29.42;;;;;;;1.89;83.37;100780.50;1976942;90;28717;-64
2022/11/06 01:16:50;;;;;;;64.92;30.37;;;;;;;1.89;83.43;100792.85;1976902;90;31047;-64
2022/11/06 01:19:52;;;;;;;52.17;29.50;;;;;;;1.87;83.45;100795.94;1976961;90;33031;-65
2022/11/06 01:22:53;;;;;;;54.27;28.95;;;;;;;1.86;83.43;100798.14;1977030;90;29124;-64
2022/11/06 01:25:57;;;;;;;47.40;28.80;;;;;;;1.85;83.50;100803.85;1977128;90;27631;-64
2022/11/06 01:28:59;;;;;;;37.23;21.42;;;;;;;1.82;83.52;100803.44;1977180;90;28732;-64
2022/11/06 01:32:01;;;;;;;45.55;28.83;;;;;;;1.83;83.57;100800.34;1976953;90;32261;-65
2022/11/06 01:35:02;;;;;;;48.02;27.65;;;;;;;1.82;83.51;100802.58;1949882;90;34183;-64
2022/11/06 01:38:03;;;;;;;47.00;29.37;;;;;;;1.81;83.63;100796.40;1946519;91;29738;-65
2022/11/06 01:41:04;;;;;;;61.13;31.40;;;;;;;1.81;83.58;100796.40;1946573;91;27766;-64
2022/11/06 01:44:34;;;;;;;60.60;30.55;;;;;;;1.80;83.51;100792.00;1946495;91;29150;-64
2022/11/06 01:47:36;;;;;;;60.50;33.13;;;;;;;1.77;83.54;100784.09;1946123;91;32296;-64
2022/11/06 01:50:38;;;;;;;58.92;33.98;;;;;;;1.76;83.64;100792.03;1946188;91;32983;-64
2022/11/06 01:53:39;;;;;;;67.75;33.02;;;;;;;1.76;83.72;100791.57;1946024;91;30608;-65
2022/11/06 01:56:43;;;;;;;77.20;37.85;;;;;;;1.75;83.73;100796.42;1946486;91;27740;-65
2022/11/06 01:59:45;;;;;;;84.87;34.65;;;;;;;1.75;83.81;100796.42;1946396;91;29246;-65
2022/11/06 02:02:46;;;;;;;59.10;34.23;;;;;;;1.76;83.87;100794.67;1949610;90;30470;-65
2022/11/06 02:05:48;;;;;;;68.15;34.98;;;;;;;1.74;83.81;100799.94;1977067;90;34085;-65
2022/11/06 02:08:49;;;;;;;63.90;33.67;;;;;;;1.73;83.69;100790.72;1976794;90;30466;-65
2022/11/06 02:11:58;;;;;;;64.80;34.20;;;;;;;1.70;83.71;100792.05;1946520;90;27800;-64
2022/11/06 02:15:20;;;;;;;58.87;35.65;;;;;;;1.69;83.67;100792.94;1945663;91;28679;-64
2022/11/06 02:18:49;;;;;;;54.75;34.80;;;;;;;1.65;83.63;100790.77;1946412;91;31463;-64
2022/11/06 02:22:30;;;;;;;64.53;37.17;;;;;;;1.63;83.62;100795.17;1932050;92;34119;-64
2022/11/06 02:25:57;;;;;;;65.20;35.78;;;;;;;1.60;83.64;100801.78;1890645;94;29904;-64
2022/11/06 02:29:03;;;;;;;64.05;35.50;;;;;;;1.55;83.59;100805.77;1918345;92;27747;-64
2022/11/06 02:32:10;;;;;;;66.22;37.33;;;;;;;1.52;83.55;100807.09;1921227;92;29096;-65
2022/11/06 02:35:51;;;;;;;68.28;36.23;;;;;;;1.50;83.61;100800.52;1920527;92;31126;-65
2022/11/06 02:38:56;;;;;;;74.40;39.70;;;;;;;1.48;83.65;100798.77;1921086;92;34145;-65
2022/11/06 02:41:58;;;;;;;78.95;40.30;;;;;;;1.47;83.74;100795.70;1950854;91;30461;-64
2022/11/06 02:45:01;;;;;;;76.42;42.35;;;;;;;1.46;83.75;100792.62;1951069;91;27772;-64
2022/11/06 02:48:05;;;;;;;80.75;41.68;;;;;;;1.44;83.70;100791.74;1950761;91;29066;-64
2022/11/06 02:51:10;;;;;;;83.15;43.95;;;;;;;1.40;83.59;100788.25;1919643;92;31320;-64
2022/11/06 02:54:11;;;;;;;71.57;41.98;;;;;;;1.36;83.54;100795.27;1950700;91;33617;-64
2022/11/06 02:57:14;;;;;;;77.03;42.58;;;;;;;1.34;83.61;100800.14;1925943;91;29751;-64
2022/11/06 03:00:16;;;;;;;71.37;39.75;;;;;;;1.31;83.62;100797.50;1970336;89;27646;-64
2022/11/06 03:03:23;;;;;;;81.05;42.60;;;;;;;1.28;83.64;100791.80;1984480;89;29569;-64
2022/11/06 03:06:47;;;;;;;73.65;40.92;;;;;;;1.27;83.63;100791.78;1984258;89;31088;-64
2022/11/06 03:09:48;;;;;;;70.95;40.08;;;;;;;1.25;83.69;100797.51;1987618;89;33041;-64
2022/11/06 03:12:55;;;;;;;71.12;40.05;;;;;;;1.23;83.70;100797.98;1997985;89;29696;-64
2022/11/06 03:16:13;;;;;;;77.20;42.65;;;;;;;1.21;83.74;100796.22;1998035;87;27638;-64
2022/11/06 03:19:35;;;;;;;71.53;39.05;;;;;;;1.21;83.69;100800.61;1997803;89;28817;-64
2022/11/06 03:22:47;;;;;;;66.02;37.63;;;;;;;1.20;83.78;100792.25;1999126;88;31488;-64
2022/11/06 03:25:57;;;;;;;68.40;38.63;;;;;;;1.19;83.78;100794.45;1997884;89;32980;-64
2022/11/06 03:29:34;;;;;;;56.83;34.80;;;;;;;1.19;83.82;100787.86;1997662;89;30136;-64
2022/11/06 03:33:05;;;;;;;60.28;37.65;;;;;;;1.18;83.85;100784.77;1998060;89;27721;-64
2022/11/06 03:36:14;;;;;;;61.92;35.65;;;;;;;1.17;83.83;100784.34;1998382;89;28935;-65
2022/11/06 03:39:26;;;;;;;59.80;34.88;;;;;;;1.15;83.85;100784.81;1992926;89;32202;-65
2022/11/06 03:42:29;;;;;;;61.05;35.23;;;;;;;1.15;83.83;100788.77;1934816;92;33021;-65
2022/11/06 03:45:32;;;;;;;56.48;34.80;;;;;;;1.13;83.82;100791.85;1934848;92;29716;-65
2022/11/06 03:48:40;;;;;;;55.30;32.20;;;;;;;1.10;83.78;100790.08;1935205;92;27795;-65
2022/11/06 03:51:52;;;;;;;53.25;31.68;;;;;;;1.11;83.96;100795.80;1934846;91;28712;-64
2022/11/06 03:55:08;;;;;;;46.37;30.00;;;;;;;1.10;83.90;100791.39;1934903;91;31385;-64
2022/11/06 03:58:22;;;;;;;47.33;28.98;;;;;;;1.10;83.90;100795.81;1934978;92;33376;-64
2022/11/06 04:01:28;;;;;;;45.83;28.52;;;;;;;1.08;83.80;100797.57;1934586;91;29373;-65
2022/11/06 04:04:36;;;;;;;51.48;30.15;;;;;;;1.06;83.84;100802.41;1935331;91;28075;-64
2022/11/06 04:13:55;;;;;;;49.00;31.45;;;;;;;1.05;83.90;100800.65;1915103;92;29310;-64
2022/11/06 04:14:09;;;;;;;43.17;27.10;;;;;;;1.04;83.92;100800.67;1919090;92;33425;-65
2022/11/06 04:17:12;;;;;;;42.60;27.70;;;;;;;1.02;83.98;100791.88;1965050;90;29462;-64
2022/11/06 04:26:34;;;;;;;51.35;27.05;;;;;;;1.02;84.00;100787.46;1950491;91;29270;-64
2022/11/06 04:27:16;;;;;;;67.90;29.98;;;;;;;1.02;83.98;100786.14;1950526;91;31243;-64
2022/11/06 04:30:17;;;;;;;61.13;28.95;;;;;;;1.02;84.13;100787.91;1950384;91;34792;-64
2022/11/06 04:33:47;;;;;;;51.80;28.52;;;;;;;1.04;84.34;100784.84;1950777;90;28683;-64
2022/11/06 04:37:25;;;;;;;62.35;29.32;;;;;;;1.09;84.36;100794.91;1951909;90;27685;-65
2022/11/06 04:40:48;;;;;;;59.03;31.48;;;;;;;1.11;84.41;100793.61;1938246;90;29741;-64
2022/11/06 04:43:57;;;;;;;60.33;30.43;;;;;;;1.13;84.52;100794.03;1921501;92;31440;-64
2022/11/06 04:47:09;;;;;;;70.65;31.35;;;;;;;1.17;84.68;100790.94;1952617;91;33364;-65
2022/11/06 04:50:11;;;;;;;76.28;30.90;;;;;;;1.20;84.75;100784.33;1921742;92;30480;-65
2022/11/06 04:53:14;;;;;;;65.40;33.85;;;;;;;1.20;84.74;100784.33;1953840;91;27631;-65
2022/11/06 04:56:24;;;;;;;73.22;33.65;;;;;;;1.25;84.76;100786.52;1921605;92;28726;-65
2022/11/06 04:59:26;;;;;;;64.70;31.57;;;;;;;1.26;84.76;100784.33;1969009;90;31876;-64
2022/11/06 05:02:28;;;;;;;64.97;29.32;;;;;;;1.30;84.78;100787.83;1921485;92;33431;-65
2022/11/06 05:05:30;;;;;;;58.35;30.35;;;;;;;1.31;84.75;100783.88;1953286;91;29568;-65
2022/11/06 05:08:32;;;;;;;57.30;28.80;;;;;;;1.33;84.72;100784.72;1953698;91;28314;-65
2022/11/06 05:11:33;;;;;;;61.10;27.42;;;;;;;1.33;84.67;100792.64;1981900;89;29362;-65
2022/11/06 05:14:35;;;;;;;120.47;50.12;;;;;;;1.34;84.67;100793.08;1951643;91;32489;-65
2022/11/06 05:17:37;;;;;;;67.58;31.45;;;;;;;1.33;84.59;100798.38;1951699;91;33297;-65
2022/11/06 05:20:38;;;;;;;60.70;26.20;;;;;;;1.28;84.54;100790.48;1951661;91;30681;-65
2022/11/06 05:23:40;;;;;;;68.42;24.05;;;;;;;1.28;84.64;100790.91;1969945;89;27653;-65
2022/11/06 05:26:42;;;;;;;45.20;23.83;;;;;;;1.26;84.60;100795.30;1921643;92;29827;-65
2022/11/06 05:29:43;;;;;;;64.40;25.95;;;;;;;1.25;84.76;100789.59;1953296;91;31883;-66
2022/11/06 05:32:45;;;;;;;47.55;24.20;;;;;;;1.27;84.84;100784.77;1968853;90;34255;-66
2022/11/06 05:35:46;;;;;;;43.08;23.35;;;;;;;1.29;84.92;100783.00;1921697;92;29341;-65
2022/11/06 05:38:47;;;;;;;46.10;25.45;;;;;;;1.32;85.03;100783.00;1953412;91;27725;-66
2022/11/06 05:41:49;;;;;;;46.73;24.65;;;;;;;1.34;84.97;100786.48;1953584;91;29847;-65
2022/11/06 05:44:50;;;;;;;45.60;24.35;;;;;;;1.36;84.91;100784.72;1969213;90;31403;-65
2022/11/06 05:47:51;;;;;;;44.05;24.47;;;;;;;1.38;84.95;100793.07;1921924;92;32766;-65
2022/11/06 05:50:53;;;;;;;40.55;22.62;;;;;;;1.40;84.95;100792.20;1953613;91;30451;-65
2022/11/06 05:53:54;;;;;;;39.25;22.05;;;;;;;1.42;84.99;100791.73;1968719;89;27708;-66
2022/11/06 05:56:56;;;;;;;40.50;25.23;;;;;;;1.43;84.90;100792.16;1984629;89;29283;-65
2022/11/06 05:59:57;;;;;;;41.92;25.12;;;;;;;1.44;84.73;100803.16;1984921;89;31979;-65
2022/11/06 06:02:58;;;;;;;42.62;23.25;;;;;;;1.42;84.78;100798.78;1951955;90;34100;-65
2022/11/06 06:06:00;;;;;;;38.55;22.75;;;;;;;1.43;84.79;100792.63;1938063;91;29351;-65
2022/11/06 06:09:01;;;;;;;63.05;32.28;;;;;;;1.43;84.88;100793.48;1951948;90;27795;-65
2022/11/06 06:12:03;;;;;;;58.25;31.30;;;;;;;1.45;84.88;100791.72;1952068;91;28715;-65
2022/11/06 06:15:07;;;;;;;51.73;27.98;;;;;;;1.46;84.84;100793.48;1951559;91;31135;-65
2022/11/06 06:18:09;;;;;;;52.65;24.70;;;;;;;1.48;85.00;100797.00;1951900;90;33176;-65
2022/11/06 06:21:11;;;;;;;44.77;25.20;;;;;;;1.49;84.86;100801.39;1951732;91;29949;-65
2022/11/06 06:24:12;;;;;;;58.63;27.55;;;;;;;1.48;84.70;100804.05;1934288;90;27647;-65
2022/11/06 06:27:13;;;;;;;52.45;29.57;;;;;;;1.44;84.64;100799.20;1921658;92;29145;-65
2022/11/06 06:30:15;;;;;;;41.15;26.85;;;;;;;1.45;84.78;100800.96;1953270;91;31133;-65
2022/11/06 06:33:16;;;;;;;37.67;22.87;;;;;;;1.46;84.82;100801.86;1969011;90;34509;-65
2022/11/06 06:36:18;;;;;;;42.70;25.92;;;;;;;1.48;85.01;100807.56;1920221;92;30620;-64
2022/11/06 06:39:27;;;;;;;76.20;47.58;;;;;;;1.52;84.99;100808.41;1919644;92;27929;-65
2022/11/06 06:42:29;;;;;;;52.53;33.53;;;;;;;1.59;85.17;100811.91;1950056;91;29992;-65
2022/11/06 06:45:31;;;;;;;34.10;22.00;;;;;;;1.62;85.09;100812.79;1920229;91;32235;-65
2022/11/06 06:48:33;;;;;;;37.25;23.42;;;;;;;1.66;85.28;100813.19;1921775;92;33338;-65
2022/11/06 06:51:35;;;;;;;35.83;20.75;;;;;;;1.74;85.37;100821.08;1921764;92;29329;-64
2022/11/06 06:54:37;;;;;;;33.02;20.80;;;;;;;1.78;85.33;100822.83;1922058;92;27765;-65
2022/11/06 06:57:38;;;;;;;33.48;22.22;;;;;;;1.80;85.19;100814.45;1922128;92;29071;-65
2022/11/06 07:00:40;;;;;;;39.03;22.82;;;;;;;1.86;85.28;100817.95;1921961;92;31658;-65
2022/11/06 07:03:41;;;;;;;35.48;22.13;;;;;;;1.88;85.21;100814.41;1921704;92;33472;-66
2022/11/06 07:06:42;;;;;;;41.42;23.95;;;;;;;1.92;85.24;100824.51;1921992;92;29378;-65
2022/11/06 07:09:43;;;;;;;49.98;29.32;;;;;;;1.95;85.27;100824.08;1922063;92;27722;-65
2022/11/06 07:12:45;;;;;;;40.20;22.95;;;;;;;1.99;85.24;100818.31;1922324;92;28664;-65
2022/11/06 07:15:46;;;;;;;46.02;27.17;;;;;;;2.05;85.39;100822.26;1921837;92;32262;-65
2022/11/06 07:18:54;;;;;;;33.67;22.70;;;;;;;2.16;85.51;100823.95;1920260;92;33383;-65
2022/11/06 07:21:56;;;;;;;38.10;24.00;;;;;;;2.25;85.67;100822.55;1920121;92;29588;-65
2022/11/06 07:24:57;;;;;;;33.18;22.10;;;;;;;2.37;85.74;100818.52;1950034;91;28243;-65
2022/11/06 07:28:02;;;;;;;33.18;22.67;;;;;;;2.50;85.95;100825.03;1977734;89;29094;-65
2022/11/06 07:31:13;;;;;;;31.60;21.37;;;;;;;2.60;85.84;100815.25;1977894;88;31669;-65
2022/11/06 07:34:16;;;;;;;34.13;22.27;;;;;;;2.65;85.69;100810.81;1977206;89;29454;-65
2022/11/06 07:37:18;;;;;;;41.23;24.07;;;;;;;2.72;85.50;100820.43;1974863;90;30170;-65
2022/11/06 07:40:19;;;;;;;35.30;23.12;;;;;;;2.80;85.64;100812.00;1975197;90;27717;-66
2022/11/06 07:43:20;;;;;;;45.20;29.10;;;;;;;2.93;85.67;100811.88;1975115;90;28422;-65
2022/11/06 07:46:21;;;;;;;43.50;27.90;;;;;;;3.09;86.02;100812.14;1975012;89;31488;-65
2022/11/06 07:49:23;;;;;;;39.48;26.97;;;;;;;3.26;85.88;100812.41;1974857;90;33559;-65
2022/11/06 07:52:24;;;;;;;38.48;24.50;;;;;;;3.40;85.88;100807.83;1975077;90;29111;-65
2022/11/06 07:55:25;;;;;;;39.53;25.55;;;;;;;3.58;85.84;100802.73;1975263;89;27635;-64
2022/11/06 07:58:26;;;;;;;33.20;22.05;;;;;;;3.75;85.84;100803.86;1922278;92;28553;-65
2022/11/06 08:01:28;;;;;;;36.15;24.40;;;;;;;3.86;85.65;100800.18;1922167;92;31894;-65
2022/11/06 08:04:29;;;;;;;39.48;24.95;;;;;;;3.99;85.71;100802.22;1922251;92;34141;-65
2022/11/06 08:07:30;;;;;;;39.63;24.60;;;;;;;4.13;85.72;100799.37;1922200;92;29427;-65
2022/11/06 08:10:31;;;;;;;40.23;25.50;;;;;;;4.30;86.03;100802.66;1922367;92;27690;-66
2022/11/06 08:13:34;;;;;;;38.17;24.35;;;;;;;4.53;86.51;100798.73;1922194;92;29111;-66
2022/11/06 08:16:35;;;;;;;38.02;25.32;;;;;;;4.75;86.62;100803.22;1922156;92;32329;-66
2022/11/06 08:19:36;;;;;;;38.90;23.45;;;;;;;4.94;86.62;100806.45;1922291;92;33115;-66
2022/11/06 08:22:37;;;;;;;41.20;24.77;;;;;;;5.10;86.25;100802.17;1922215;92;29461;-66
2022/11/06 08:25:39;;;;;;;40.08;23.65;;;;;;;5.21;86.21;100800.65;1922398;92;27680;-66
2022/11/06 08:28:41;;;;;;;43.25;23.30;;;;;;;5.36;86.54;100803.00;1922056;92;30081;-66
2022/11/06 08:31:42;;;;;;;36.42;21.27;;;;;;;5.49;86.17;100803.61;1922191;92;31077;-65
2022/11/06 08:34:43;;;;;;;40.88;21.55;;;;;;;5.63;86.38;100798.02;1926001;91;33903;-65
2022/11/06 08:37:45;;;;;;;36.40;21.23;;;;;;;5.76;86.09;100799.49;1984156;88;29780;-65
2022/11/06 08:40:46;;;;;;;33.92;22.52;;;;;;;5.88;86.23;100798.36;1984414;88;27739;-65
2022/11/06 08:43:52;;;;;;;38.25;24.05;;;;;;;6.03;86.10;100798.95;1956302;90;28780;-65
2022/11/06 08:46:53;;;;;;;37.08;21.27;;;;;;;6.12;85.81;100801.86;1978004;89;31287;-66
2022/11/06 08:49:54;;;;;;;36.23;23.07;;;;;;;6.26;85.93;100794.89;1951660;91;33366;-64
2022/11/06 08:52:57;;;;;;;40.28;23.32;;;;;;;6.39;85.95;100791.88;1984038;89;30736;-64
2022/11/06 08:56:01;;;;;;;39.48;22.30;;;;;;;6.49;85.56;100792.53;1951893;90;28304;-65
2022/11/06 08:59:02;;;;;;;36.90;20.60;;;;;;;6.61;85.70;100796.69;1937979;91;28680;-66
2022/11/06 09:02:03;;;;;;;43.87;23.75;;;;;;;6.73;85.53;100794.61;1951697;90;32244;-66
2022/11/06 09:05:09;;;;;;;39.65;24.15;;;;;;;6.84;85.61;100799.22;1951500;91;34181;-65
2022/11/06 09:08:13;;;;;;;44.88;28.17;;;;;;;6.96;85.45;100789.57;1951520;91;30320;-66
2022/11/06 09:11:24;;;;;;;47.65;28.70;;;;;;;7.12;85.64;100790.48;1983476;88;27753;-67
2022/11/06 09:14:30;;;;;;;44.40;28.07;;;;;;;7.25;85.52;100791.89;1952123;90;27795;-65
2022/11/06 09:17:31;;;;;;;44.20;27.07;;;;;;;7.40;85.41;100794.59;1930311;91;31431;-66
2022/11/06 09:20:33;;;;;;;43.17;25.82;;;;;;;7.50;84.97;100788.98;1953185;91;33603;-66
2022/11/06 09:23:34;;;;;;;37.78;24.80;;;;;;;7.60;84.80;100792.67;1968667;90;29717;-65
2022/11/06 09:26:36;;;;;;;35.33;22.73;;;;;;;7.72;84.87;100793.22;1921950;92;27761;-66
2022/11/06 09:29:42;;;;;;;38.00;23.20;;;;;;;7.84;84.97;100792.87;1921691;92;29097;-67
2022/11/06 09:32:57;;;;;;;36.53;20.12;;;;;;;7.94;84.82;100785.47;1953534;89;31440;-65
2022/11/06 09:35:58;;;;;;;34.75;19.17;;;;;;;8.04;84.61;100784.25;1921558;92;33786;-65
2022/11/06 09:38:59;;;;;;;34.35;18.65;;;;;;;8.16;84.71;100790.11;1953356;91;29908;-65
2022/11/06 09:42:05;;;;;;;29.57;18.87;;;;;;;8.26;84.32;100786.24;1953464;91;27628;-65
2022/11/06 09:45:21;;;;;;;25.97;17.27;;;;;;;8.35;84.29;100787.74;1952379;91;29886;-65
2022/11/06 09:48:34;;;;;;;34.03;19.55;;;;;;;8.45;84.33;100790.95;1983807;89;31114;-64
2022/11/06 09:51:56;;;;;;;30.88;19.80;;;;;;;8.53;83.60;100782.72;1983974;89;32976;-66
2022/11/06 09:55:23;;;;;;;37.73;18.92;;;;;;;8.58;83.61;100784.78;1949970;90;30569;-65
2022/11/06 09:58:30;;;;;;;33.58;18.50;;;;;;;8.68;83.98;100781.34;1952086;90;27711;-65
2022/11/06 10:01:37;;;;;;;33.88;19.67;;;;;;;8.78;83.90;100778.75;1950613;90;29502;-65
2022/11/06 10:04:56;;;;;;;33.50;19.80;;;;;;;8.86;83.74;100774.48;1950906;90;31967;-65
2022/11/06 10:08:04;;;;;;;36.08;16.77;;;;;;;8.97;83.76;100779.01;1951868;90;33354;-64
2022/11/06 10:11:17;;;;;;;27.17;16.32;;;;;;;9.04;83.22;100772.50;1951877;90;29339;-65
2022/11/06 10:14:48;;;;;;;31.20;16.15;;;;;;;9.08;82.92;100776.81;1951855;90;27712;-65
2022/11/06 10:18:09;;;;;;;30.88;15.60;;;;;;;9.14;82.74;100774.39;1925341;91;29168;-65
2022/11/06 10:21:24;;;;;;;30.30;14.13;;;;;;;9.21;82.94;100770.58;1934637;91;31401;-69
2022/11/06 10:24:44;;;;;;;;;;;;;;;9.33;82.75;100768.38;1955686;91;32386;-71
2022/11/06 10:28:10;;;;;;;19.35;9.65;;;;;;;9.43;82.71;100759.95;1920937;92;30537;-65
2022/11/06 10:31:23;;;;;;;25.82;8.65;;;;;;;9.54;82.59;100761.34;1943595;91;27885;-65
2022/11/06 10:34:35;;;;;;;18.55;8.43;;;;;;;9.65;82.42;100753.80;1939807;89;29936;-61
2022/11/06 10:37:41;;;;;;;24.37;8.40;;;;;;;9.74;81.92;100748.55;1933737;89;30875;-65
2022/11/06 10:40:47;;;;;;;17.85;8.48;;;;;;;9.82;81.69;100744.24;1953220;90;34176;-62
2022/11/06 10:43:53;;;;;;;17.55;8.13;;;;;;;9.90;80.51;100743.45;1948327;90;29342;-64
2022/11/06 10:47:20;;;;;;;27.13;9.48;;;;;;;9.94;80.59;100732.16;1958721;90;28185;-62
2022/11/06 10:50:24;;;;;;;22.07;13.43;;;;;;;9.99;80.26;100726.16;1944151;91;29596;-63
2022/11/06 10:53:52;;;;;;;21.80;9.40;;;;;;;10.07;80.71;100723.17;1971232;89;31080;-62
2022/11/06 10:57:34;;;;;;;22.40;7.30;;;;;;;10.14;80.36;100710.81;1947490;90;33349;-69
2022/11/06 11:00:36;;;;;;;21.77;6.97;;;;;;;10.20;79.95;100697.63;1963602;90;29359;-64
2022/11/06 11:03:41;;;;;;;18.57;6.30;;;;;;;10.28;80.05;100684.80;1965507;90;27752;-63
2022/11/06 11:06:42;;;;;;;15.08;4.85;;;;;;;10.34;79.84;100676.49;1978329;88;29048;-64
2022/11/06 11:09:45;;;;;;;13.58;4.50;;;;;;;10.39;79.07;100668.77;1979652;88;31505;-68
2022/11/06 11:12:47;;;;;;;14.47;4.85;;;;;;;10.44;79.00;100668.11;1979499;88;33096;-67
2022/11/06 11:15:49;;;;;;;17.15;5.80;;;;;;;10.48;79.12;100673.75;1972162;88;29223;-64
2022/11/06 11:18:50;;;;;;;14.10;6.03;;;;;;;10.55;78.92;100666.31;1980051;88;27650;-63
2022/11/06 11:21:58;;;;;;;22.82;6.15;;;;;;;10.57;78.43;100663.95;1979537;88;29888;-64
2022/11/06 11:25:06;;;;;;;15.68;5.42;;;;;;;10.59;77.25;100661.23;1979790;88;31062;-64
2022/11/06 11:28:13;;;;;;;13.35;5.50;;;;;;;10.60;77.84;100657.58;1979932;88;32989;-64
2022/11/06 11:31:16;;;;;;;15.53;6.05;;;;;;;10.62;77.46;100646.33;1978016;88;29727;-64
2022/11/06 11:34:26;;;;;;;10.45;4.47;;;;;;;10.66;77.33;100641.25;1982814;88;28324;-66
2022/11/06 11:37:30;;;;;;;14.20;4.65;;;;;;;10.68;77.27;100627.77;1980360;88;29667;-67
2022/11/06 11:40:35;;;;;;;9.70;4.33;;;;;;;10.73;77.11;100628.44;1979240;89;32423;-63
2022/11/06 11:43:37;;;;;;;13.25;3.77;;;;;;;10.73;76.66;100613.25;1979045;89;33805;-64
2022/11/06 11:46:53;;;;;;;14.95;4.30;;;;;;;10.75;76.49;100603.34;1979277;89;29779;-66
2022/11/06 11:49:54;;;;;;;10.78;3.80;;;;;;;10.78;76.29;100607.19;1971827;89;27758;-66
2022/11/06 11:53:04;;;;;;;12.63;2.98;;;;;;;10.79;75.54;100604.06;1979037;89;29917;-61
2022/11/06 11:56:07;;;;;;;7.53;2.65;;;;;;;10.81;74.83;100606.20;1979304;89;31518;-63
2022/11/06 11:59:16;;;;;;;15.72;4.62;;;;;;;10.82;74.45;100600.36;1939009;89;33781;-63
2022/11/06 12:02:29;;;;;;;11.20;3.67;;;;;;;10.83;74.65;100600.30;1979472;89;29341;-61
2022/11/06 12:05:35;;;;;;;15.08;2.80;;;;;;;10.85;74.35;100593.03;1950694;90;27740;-65
2022/11/06 12:08:40;;;;;;;11.50;3.17;;;;;;;10.88;74.42;100586.69;1950560;89;28679;-64
2022/11/06 12:11:42;;;;;;;13.05;2.75;;;;;;;10.89;74.11;100587.09;1948876;90;31439;-65
2022/11/06 12:14:43;;;;;;;8.73;2.72;;;;;;;10.89;73.37;100571.86;1949733;90;33164;-68
2022/11/06 12:18:01;;;;;;;12.65;3.17;;;;;;;10.91;73.74;100568.64;1920323;91;29364;-64
2022/11/06 12:21:10;;;;;;;10.20;3.50;;;;;;;10.93;73.38;100561.40;1920358;91;27651;-68
2022/11/06 12:24:16;;;;;;;9.05;3.47;;;;;;;10.96;74.11;100564.88;1939449;89;28768;-65
2022/11/06 12:27:25;;;;;;;11.15;4.87;;;;;;;11.00;73.94;100566.00;1923018;91;31057;-64
2022/11/06 12:30:26;;;;;;;9.48;3.20;;;;;;;11.02;73.82;100557.87;1955560;89;32995;-67
2022/11/06 12:33:29;;;;;;;8.03;3.45;;;;;;;11.03;73.47;100560.50;1952115;89;29846;-67
2022/11/06 12:36:38;;;;;;;10.38;3.20;;;;;;;11.04;73.45;100554.20;1917041;88;27705;-63
2022/11/06 12:39:36;;;;;;;10.53;3.20;;;;;;;11.04;72.79;100555.98;1996223;88;29238;-66
2022/11/06 12:42:39;;;;;;;11.08;3.30;;;;;;;10.98;72.59;100546.43;1985255;88;31467;-63
2022/11/06 12:45:53;;;;;;;7.72;3.27;;;;;;;11.04;72.74;100558.22;1984942;88;33102;-66
2022/11/06 12:49:29;;;;;;;11.85;5.30;;;;;;;11.02;72.89;100549.37;1983864;88;29488;-66
2022/11/06 12:52:36;;;;;;;;;;;;;;;11.02;72.97;100541.78;1984223;89;27716;-68
2022/11/06 12:55:43;;;;;;;10.63;3.10;;;;;;;11.00;72.45;100537.84;1985756;89;28178;-62
2022/11/06 12:59:01;;;;;;;8.98;3.80;;;;;;;10.98;72.42;100534.86;1986981;88;31457;-64
2022/11/06 13:02:35;;;;;;;8.80;3.77;;;;;;;10.97;72.05;100534.45;1979888;88;33006;-63
2022/11/06 13:06:27;;;;;;;14.93;4.75;;;;;;;10.96;72.42;100540.27;1985529;89;29353;-64
2022/11/06 13:10:08;;;;;;;11.75;3.77;;;;;;;10.94;72.12;100535.45;1931842;90;27783;-66
2022/11/06 13:14:00;;;;;;;9.70;3.20;;;;;;;10.92;71.89;100532.00;1943945;91;29055;-64
2022/11/06 13:17:28;;;;;;;7.60;3.17;;;;;;;10.90;71.89;100530.71;1939049;91;32311;-64
2022/11/06 13:20:53;;;;;;;10.95;3.80;;;;;;;10.90;71.80;100530.71;1906747;92;34014;-68
2022/11/06 13:24:02;;;;;;;7.20;2.00;;;;;;;10.88;71.68;100532.59;1933515;91;29365;-74
2022/11/06 13:27:24;;;;;;;9.70;2.80;;;;;;;10.88;71.87;100529.91;1922415;92;28048;-73
2022/11/06 13:30:26;;;;;;;6.97;3.08;;;;;;;10.86;71.37;100519.73;1938058;91;29506;-64
2022/11/06 13:33:42;;;;;;;9.60;3.42;;;;;;;10.84;71.52;100516.73;1940737;91;32237;-64
2022/11/06 13:36:44;;;;;;;11.88;3.30;;;;;;;10.81;71.61;100511.06;1910011;92;33473;-62
2022/11/06 13:39:52;;;;;;;17.37;5.92;;;;;;;10.79;71.56;100504.91;1961502;89;30758;-65
2022/11/06 13:43:05;;;;;;;12.90;5.60;;;;;;;10.79;71.75;100506.23;1986756;89;27652;-64
2022/11/06 13:46:34;;;;;;;12.78;3.45;;;;;;;10.78;71.86;100511.20;1989253;89;29346;-63
2022/11/06 13:49:56;;;;;;;7.15;3.05;;;;;;;10.74;71.14;100505.13;2012278;88;31471;-63
2022/11/06 13:53:05;;;;;;;11.73;3.05;;;;;;;10.72;71.44;100503.44;1952473;89;33030;-65
2022/11/06 13:56:40;;;;;;;15.40;3.40;;;;;;;10.70;71.25;100498.62;1987130;88;30206;-66
2022/11/06 14:00:03;;;;;;;11.97;4.15;;;;;;;10.68;71.39;100492.00;1985528;89;27729;-67
2022/11/06 14:03:29;;;;;;;10.03;2.90;;;;;;;10.67;71.46;100496.11;2003603;88;28894;-64
2022/11/06 14:06:32;;;;;;;8.53;2.58;;;;;;;10.64;70.59;100493.97;1956493;89;32462;-65
2022/11/06 14:09:35;;;;;;;9.45;2.85;;;;;;;10.63;70.79;100498.04;1985588;89;34144;-64
2022/11/06 14:12:36;;;;;;;9.98;3.62;;;;;;;10.59;70.87;100485.27;1991103;89;28781;-64
2022/11/06 14:15:40;;;;;;;10.82;3.52;;;;;;;10.57;70.66;100488.48;1952623;89;27726;-64
2022/11/06 14:18:42;;;;;;;13.53;3.40;;;;;;;10.55;70.65;100486.83;1984590;88;28823;-63
2022/11/06 14:21:47;;;;;;;9.35;3.55;;;;;;;10.53;70.87;100489.56;1983854;89;32060;-62
2022/11/06 14:24:49;;;;;;;8.35;3.37;;;;;;;10.51;70.54;100490.58;1976541;88;32986;-63
2022/11/06 14:27:55;;;;;;;8.53;3.40;;;;;;;10.49;70.55;100489.33;1954631;89;30519;-65
2022/11/06 14:30:57;;;;;;;8.38;3.92;;;;;;;10.46;70.83;100497.02;1957190;90;27741;-66